Главная страница
METAR-TAF:

METAR-TAF

Аэропорты :

Измир, Турция

широта: 38-30N, долгота: 027-01E, высота над уровнем моря: 5 м

METAR: отсутствует

Время: 02:40 (23:40 UTC)

Прогноз

Эта сводка был подготовлена 4 часа и 0 минут назад, в 19:40 UTC
Прогноз действительный с 17-го 21 UTC до 18-го 06 UTC
Ветер 2 Узел переменных направлений
Видимость 10 км и более
Отдельные облака на высоте 3500 фута
Рассеянная облачность на высоте 10000 фута

TAF: LTBL 171940Z 1721/1806 VRB02KT 9999 SCT035 BKN100

Метеонаблюдения и прогнозы для более 4000 аэропортов (сводки METAR и TAF).

Имеющиеся станции представлены на карте желтыми и красными точками.

Чтобы увидеть название станции, наведите на нее мышь.

Затем щелкните, чтобы увидеть метеонаблюдения и метеопрогнозы.

Управление картой: чтобы увеличить масштаб, щелкните зеленые кнопки с черным крестиком; чтобы уменьшить масштаб, щелкните зеленую кнопку с тире; для просмотра соседних карт щелкайте зеленые стрелки.


METAR-TAF: